Time;durP1;ratioP1;P1;durP2;ratioP2;P2;SDS_P1;SDS_P2;PMS_P1;PMS_P2;Temp;Humidity;BMP_temperature;BMP_pressure;BME280_temperature;BME280_humidity;BME280_pressure;Samples;Min_cycle;Max_cycle;Signal;HPM_P1;HPM_P2
2022/02/25 00:01:46;;;;;;;0.30;0.20;;;3.70;99.90;;;;;;5034390;28;20790;-77
2022/02/25 00:04:13;;;;;;;0.30;0.20;;;3.70;99.90;;;;;;5034221;28;20451;-77
2022/02/25 00:06:39;;;;;;;0.30;0.20;;;3.70;99.90;;;;;;5033893;28;20458;-77
2022/02/25 00:09:07;;;;;;;0.30;0.20;;;3.70;99.90;;;;;;5033816;28;20467;-77
2022/02/25 00:11:35;;;;;;;0.30;0.30;;;3.70;99.90;;;;;;5033611;28;20799;-77
2022/02/25 00:14:01;;;;;;;0.30;0.30;;;3.70;99.90;;;;;;5033765;28;20451;-77
2022/02/25 00:16:28;;;;;;;0.30;0.30;;;3.70;99.90;;;;;;5033669;28;20447;-77
2022/02/25 00:18:55;;;;;;;0.30;0.20;;;3.70;99.90;;;;;;5033607;28;20455;-77
2022/02/25 00:21:22;;;;;;;0.83;0.83;;;3.60;99.90;;;;;;5033937;28;20451;-77
2022/02/25 00:23:48;;;;;;;0.30;0.30;;;3.60;99.90;;;;;;5033644;28;20442;-77
2022/02/25 00:26:16;;;;;;;0.30;0.20;;;3.50;99.90;;;;;;5032589;28;20797;-77
2022/02/25 00:28:43;;;;;;;0.30;0.20;;;3.40;99.90;;;;;;5033700;28;20469;-77
2022/02/25 00:31:10;;;;;;;0.30;0.30;;;3.40;99.90;;;;;;5033523;28;20454;-77
2022/02/25 00:33:37;;;;;;;0.30;0.20;;;3.40;99.90;;;;;;5033502;28;20474;-77
2022/02/25 00:36:05;;;;;;;0.30;0.30;;;3.30;99.90;;;;;;5033512;28;20946;-77
2022/02/25 00:38:31;;;;;;;0.30;0.20;;;3.30;99.90;;;;;;5032991;28;20489;-77
2022/02/25 00:40:58;;;;;;;0.30;0.20;;;3.20;99.90;;;;;;5033212;28;20431;-77
2022/02/25 00:43:26;;;;;;;0.30;0.20;;;3.10;99.90;;;;;;5033400;28;20455;-77
2022/02/25 00:45:53;;;;;;;0.30;0.30;;;3.10;99.90;;;;;;5033357;28;20451;-77
2022/02/25 00:48:20;;;;;;;0.30;0.20;;;3.10;99.90;;;;;;5033212;28;20477;-77
2022/02/25 00:50:46;;;;;;;0.30;0.23;;;3.00;99.90;;;;;;5033230;28;20950;-77
2022/02/25 00:53:13;;;;;;;0.30;0.20;;;3.00;99.90;;;;;;5032953;28;20453;-77
2022/02/25 00:55:40;;;;;;;0.50;0.50;;;2.90;99.90;;;;;;5033248;28;20455;-77
2022/02/25 00:58:07;;;;;;;0.30;0.20;;;2.90;99.90;;;;;;5033012;28;20490;-77
2022/02/25 01:00:35;;;;;;;0.30;0.20;;;2.90;99.90;;;;;;5033281;28;20459;-77
2022/02/25 01:03:02;;;;;;;0.30;0.30;;;2.80;99.90;;;;;;5033262;28;20447;-77
2022/02/25 01:05:28;;;;;;;0.30;0.30;;;2.80;99.90;;;;;;5034009;28;20443;-77
2022/02/25 01:07:55;;;;;;;0.30;0.20;;;2.80;99.90;;;;;;5032665;28;20466;-77
2022/02/25 01:10:22;;;;;;;0.30;0.30;;;2.80;99.90;;;;;;5033209;28;20446;-77
2022/02/25 01:12:49;;;;;;;0.30;0.30;;;2.70;99.90;;;;;;5032866;28;20450;-77
2022/02/25 01:15:17;;;;;;;0.30;0.20;;;2.70;99.90;;;;;;5033208;28;20454;-77
2022/02/25 01:17:45;;;;;;;0.30;0.20;;;2.70;99.90;;;;;;5033049;28;20559;-77
2022/02/25 01:20:12;;;;;;;0.30;0.20;;;2.70;99.90;;;;;;5032986;28;20446;-77
2022/02/25 01:22:39;;;;;;;0.30;0.20;;;2.60;99.90;;;;;;5032825;28;20969;-77
2022/02/25 01:25:07;;;;;;;0.30;0.30;;;2.50;99.90;;;;;;5032777;28;20976;-77
2022/02/25 01:27:34;;;;;;;0.30;0.30;;;2.50;99.90;;;;;;5032928;28;20482;-77
2022/02/25 01:30:01;;;;;;;0.30;0.20;;;2.50;99.90;;;;;;5032616;28;21005;-77
2022/02/25 01:32:29;;;;;;;0.30;0.20;;;2.50;99.90;;;;;;5032687;28;20935;-77
2022/02/25 01:34:58;;;;;;;0.30;0.30;;;2.40;99.90;;;;;;5032927;28;20455;-77
2022/02/25 01:37:25;;;;;;;0.30;0.20;;;2.30;99.90;;;;;;5033830;28;20489;-77
2022/02/25 01:39:52;;;;;;;0.30;0.30;;;2.20;99.90;;;;;;5036691;28;20457;-77
2022/02/25 01:42:19;;;;;;;0.30;0.30;;;2.20;99.90;;;;;;5036311;28;20446;-77
2022/02/25 01:44:46;;;;;;;0.30;0.20;;;2.20;99.90;;;;;;5036368;28;20457;-77
2022/02/25 01:47:14;;;;;;;0.30;0.20;;;2.10;99.90;;;;;;5036417;28;20476;-77
2022/02/25 01:49:42;;;;;;;0.30;0.20;;;2.00;99.90;;;;;;5036268;28;20434;-77
2022/02/25 01:52:14;;;;;;;0.30;0.20;;;2.10;99.90;;;;;;5036398;28;20462;-77
2022/02/25 01:54:42;;;;;;;0.30;0.30;;;2.10;99.90;;;;;;5036362;28;20493;-77
2022/02/25 01:57:10;;;;;;;0.30;0.27;;;2.00;99.90;;;;;;5036278;28;20486;-77
2022/02/25 01:59:38;;;;;;;0.30;0.20;;;1.90;99.90;;;;;;5036346;28;20454;-77
2022/02/25 02:02:05;;;;;;;0.30;0.30;;;1.90;99.90;;;;;;5036037;28;20434;-77
2022/02/25 02:04:32;;;;;;;0.30;0.20;;;1.90;99.90;;;;;;5036237;28;20450;-77
2022/02/25 02:06:59;;;;;;;0.30;0.20;;;1.80;99.90;;;;;;5036170;28;20945;-77
2022/02/25 02:09:28;;;;;;;0.30;0.27;;;1.80;99.90;;;;;;5035926;28;20957;-77
2022/02/25 02:11:55;;;;;;;0.30;0.30;;;1.80;99.90;;;;;;5036399;28;20439;-77
2022/02/25 02:14:24;;;;;;;0.30;0.30;;;1.80;99.90;;;;;;5036347;28;20445;-77
2022/02/25 02:16:53;;;;;;;0.30;0.23;;;1.80;99.90;;;;;;5035513;28;20453;-77
2022/02/25 02:19:21;;;;;;;0.30;0.30;;;1.70;99.90;;;;;;5035757;28;20431;-77
2022/02/25 02:21:51;;;;;;;0.30;0.30;;;1.70;99.90;;;;;;5035909;28;20458;-77
2022/02/25 02:24:20;;;;;;;0.30;0.30;;;1.70;99.90;;;;;;5035886;28;20455;-77
2022/02/25 02:26:48;;;;;;;0.30;0.20;;;1.80;99.90;;;;;;5036080;28;20453;-77
2022/02/25 02:29:16;;;;;;;0.30;0.20;;;1.80;99.90;;;;;;5035215;28;20829;-77
2022/02/25 02:31:43;;;;;;;0.30;0.30;;;1.80;99.90;;;;;;5035410;28;20450;-77
2022/02/25 02:34:13;;;;;;;0.30;0.30;;;1.80;99.90;;;;;;5035692;28;20446;-77
2022/02/25 02:36:40;;;;;;;0.30;0.30;;;1.70;99.90;;;;;;5035616;28;20447;-77
2022/02/25 02:39:07;;;;;;;0.30;0.20;;;1.70;99.90;;;;;;5035105;28;21001;-77
2022/02/25 02:41:36;;;;;;;0.30;0.20;;;1.60;99.90;;;;;;5035561;28;20454;-77
2022/02/25 02:44:03;;;;;;;0.30;0.30;;;1.60;99.90;;;;;;5035205;28;21069;-77
2022/02/25 02:46:30;;;;;;;0.30;0.30;;;1.60;99.90;;;;;;5035234;28;20809;-77
2022/02/25 02:48:57;;;;;;;0.30;0.20;;;1.60;99.90;;;;;;5034472;28;20471;-77
2022/02/25 02:51:23;;;;;;;0.30;0.30;;;1.60;99.90;;;;;;5035388;28;20446;-77
2022/02/25 02:53:50;;;;;;;0.30;0.30;;;1.60;99.90;;;;;;5035022;28;20954;-77
2022/02/25 02:56:17;;;;;;;0.30;0.20;;;1.50;99.90;;;;;;5035170;28;20435;-77
2022/02/25 02:58:46;;;;;;;0.30;0.20;;;1.50;99.90;;;;;;5035077;28;20494;-77
2022/02/25 03:01:12;;;;;;;0.47;0.47;;;1.50;99.90;;;;;;5035150;28;20455;-77
2022/02/25 03:03:39;;;;;;;0.30;0.30;;;1.50;99.90;;;;;;5035155;28;20455;-77
2022/02/25 03:06:06;;;;;;;0.30;0.20;;;1.60;99.90;;;;;;5034814;28;20545;-77
2022/02/25 03:08:33;;;;;;;0.30;0.30;;;1.60;99.90;;;;;;5034947;28;20470;-77
2022/02/25 03:10:59;;;;;;;0.30;0.30;;;1.50;99.90;;;;;;5035022;28;20450;-77
2022/02/25 03:13:26;;;;;;;0.30;0.20;;;1.50;99.90;;;;;;5034775;28;20909;-77
2022/02/25 03:15:54;;;;;;;0.30;0.30;;;1.50;99.90;;;;;;5034957;28;20450;-77
2022/02/25 03:18:21;;;;;;;0.30;0.30;;;1.50;99.90;;;;;;5034739;28;20487;-77
2022/02/25 03:20:48;;;;;;;0.30;0.20;;;1.50;99.90;;;;;;5034573;28;20442;-77
2022/02/25 03:23:14;;;;;;;0.30;0.30;;;1.50;99.90;;;;;;5034798;28;20807;-77
2022/02/25 03:25:41;;;;;;;0.30;0.20;;;1.50;99.90;;;;;;5034491;28;20442;-77
2022/02/25 03:28:08;;;;;;;4.03;1.33;;;1.50;99.90;;;;;;5034691;28;20820;-77
2022/02/25 03:30:35;;;;;;;0.30;0.20;;;1.40;99.90;;;;;;5034364;28;20532;-77
2022/02/25 03:33:03;;;;;;;0.30;0.20;;;1.40;99.90;;;;;;5034301;28;20958;-77
2022/02/25 03:35:32;;;;;;;0.30;0.20;;;1.40;99.90;;;;;;5034531;28;20812;-77
2022/02/25 03:37:59;;;;;;;0.30;0.20;;;1.30;99.90;;;;;;5034394;28;20573;-77
2022/02/25 03:40:27;;;;;;;0.30;0.20;;;1.40;99.90;;;;;;5034520;28;20538;-77
2022/02/25 03:42:54;;;;;;;0.30;0.23;;;1.40;99.90;;;;;;5035194;28;20553;-77
2022/02/25 03:45:21;;;;;;;0.30;0.20;;;1.50;99.90;;;;;;5034289;28;20439;-77
2022/02/25 03:47:47;;;;;;;0.30;0.30;;;1.50;99.90;;;;;;5033897;28;20994;-77
2022/02/25 03:50:16;;;;;;;0.30;0.20;;;1.50;99.90;;;;;;5033903;28;20950;-77
2022/02/25 03:52:43;;;;;;;0.30;0.30;;;1.50;99.90;;;;;;5033900;28;20435;-77
2022/02/25 03:55:10;;;;;;;0.30;0.20;;;1.60;99.90;;;;;;5034153;28;20506;-77
2022/02/25 03:57:37;;;;;;;0.30;0.30;;;1.60;99.90;;;;;;5033881;28;20470;-77
2022/02/25 04:00:06;;;;;;;0.30;0.30;;;1.50;99.90;;;;;;5034000;28;20549;-77
2022/02/25 04:02:33;;;;;;;0.30;0.20;;;1.50;99.90;;;;;;5033616;28;20462;-77
2022/02/25 04:05:00;;;;;;;0.30;0.20;;;1.50;99.90;;;;;;5034002;28;20458;-77
2022/02/25 04:07:28;;;;;;;0.30;0.30;;;1.60;99.90;;;;;;5034047;28;20459;-77
2022/02/25 04:09:54;;;;;;;0.30;0.30;;;1.50;99.90;;;;;;5033925;28;20454;-77
2022/02/25 04:12:21;;;;;;;0.30;0.20;;;1.50;99.90;;;;;;5033655;28;20438;-77
2022/02/25 04:14:48;;;;;;;0.30;0.20;;;1.50;99.90;;;;;;5033603;28;20773;-77
2022/02/25 04:17:18;;;;;;;0.30;0.20;;;1.40;99.90;;;;;;5033938;28;20458;-77
2022/02/25 04:19:45;;;;;;;0.30;0.20;;;1.40;99.90;;;;;;5033607;28;20481;-77
2022/02/25 04:22:12;;;;;;;0.30;0.20;;;1.40;99.90;;;;;;5033645;28;20462;-77
2022/02/25 04:24:40;;;;;;;0.30;0.30;;;1.40;99.90;;;;;;5034384;28;20462;-77
2022/02/25 04:27:07;;;;;;;0.30;0.20;;;1.40;99.90;;;;;;5033364;28;20442;-77
2022/02/25 04:29:34;;;;;;;0.30;0.30;;;1.30;99.90;;;;;;5033664;28;20474;-77
2022/02/25 04:32:01;;;;;;;0.30;0.20;;;1.30;99.90;;;;;;5033823;28;20443;-77
2022/02/25 04:34:28;;;;;;;1.73;1.63;;;1.30;99.90;;;;;;5033584;28;20526;-77
2022/02/25 04:36:54;;;;;;;0.30;0.30;;;1.40;99.90;;;;;;5033431;28;20447;-77
2022/02/25 04:39:21;;;;;;;0.30;0.30;;;1.40;99.90;;;;;;5033177;28;20483;-77
2022/02/25 04:41:49;;;;;;;0.30;0.20;;;1.40;99.90;;;;;;5033464;28;20446;-77
2022/02/25 04:44:16;;;;;;;0.30;0.30;;;1.40;99.90;;;;;;5033450;28;20545;-77
2022/02/25 04:46:43;;;;;;;0.30;0.30;;;1.40;99.90;;;;;;5033366;28;20447;-77
2022/02/25 04:49:10;;;;;;;0.30;0.20;;;1.30;99.90;;;;;;5033304;28;20458;-77
2022/02/25 04:51:37;;;;;;;0.30;0.30;;;1.30;99.90;;;;;;5033304;28;20942;-77
2022/02/25 04:54:04;;;;;;;0.53;0.53;;;1.40;99.90;;;;;;5033070;28;20439;-77
2022/02/25 04:56:30;;;;;;;0.30;0.30;;;1.40;99.90;;;;;;5033022;28;20447;-77
2022/02/25 04:58:59;;;;;;;0.30;0.30;;;1.40;99.90;;;;;;5032976;28;20478;-77
2022/02/25 05:01:25;;;;;;;0.30;0.20;;;1.40;99.90;;;;;;5033290;28;20450;-77
2022/02/25 05:03:52;;;;;;;0.30;0.30;;;1.40;99.90;;;;;;5032881;28;20462;-77
2022/02/25 05:06:19;;;;;;;0.30;0.30;;;1.40;99.90;;;;;;5033476;28;20447;-77
2022/02/25 05:08:46;;;;;;;0.30;0.30;;;1.40;99.90;;;;;;5032823;28;20902;-77
2022/02/25 05:11:13;;;;;;;0.30;0.20;;;1.40;99.90;;;;;;5033364;28;20468;-77
2022/02/25 05:13:40;;;;;;;0.30;0.20;;;1.40;99.90;;;;;;5036256;28;20431;-77
2022/02/25 05:21:37;;;;;;;0.30;0.30;;;1.50;99.90;;;;;;5037410;28;20530;-77
2022/02/25 05:24:04;;;;;;;0.30;0.23;;;1.50;99.90;;;;;;5036648;28;20462;-77
2022/02/25 05:26:32;;;;;;;0.80;0.80;;;1.50;99.90;;;;;;5036959;28;20450;-77
2022/02/25 05:28:58;;;;;;;0.30;0.20;;;1.60;99.90;;;;;;5036432;28;20469;-77
2022/02/25 05:31:26;;;;;;;0.30;0.30;;;1.60;99.90;;;;;;5036928;28;20438;-77
2022/02/25 05:33:53;;;;;;;0.30;0.30;;;1.70;99.90;;;;;;5036500;28;20976;-77
2022/02/25 05:36:20;;;;;;;0.30;0.20;;;1.60;99.90;;;;;;5036889;28;20441;-77
2022/02/25 05:38:48;;;;;;;0.30;0.20;;;1.70;99.90;;;;;;5036752;28;20481;-77
2022/02/25 05:41:15;;;;;;;0.30;0.20;;;1.70;99.90;;;;;;5036345;28;20541;-77
2022/02/25 05:43:42;;;;;;;2.60;0.50;;;1.70;99.90;;;;;;5036366;28;20439;-77
2022/02/25 05:46:09;;;;;;;0.30;0.30;;;1.80;99.90;;;;;;5036548;28;20451;-77
2022/02/25 05:48:37;;;;;;;0.30;0.20;;;1.80;99.90;;;;;;5036498;28;20810;-77
2022/02/25 05:51:05;;;;;;;0.30;0.30;;;1.80;99.90;;;;;;5036766;28;20447;-76
2022/02/25 05:53:32;;;;;;;0.30;0.20;;;1.80;99.90;;;;;;5036463;28;20461;-76
2022/02/25 05:55:59;;;;;;;0.30;0.30;;;1.80;99.90;;;;;;5036432;28;20450;-77
2022/02/25 05:58:26;;;;;;;0.30;0.20;;;1.90;99.90;;;;;;5035990;28;20474;-77
2022/02/25 06:00:53;;;;;;;0.30;0.20;;;1.80;99.90;;;;;;5036057;28;20450;-77
2022/02/25 06:03:19;;;;;;;0.30;0.20;;;1.80;99.90;;;;;;5036059;28;20796;-77
2022/02/25 06:05:47;;;;;;;0.30;0.30;;;1.80;99.90;;;;;;5035950;28;20434;-77
2022/02/25 06:08:14;;;;;;;0.50;0.50;;;1.90;99.90;;;;;;5035743;28;20844;-76
2022/02/25 06:10:41;;;;;;;0.30;0.20;;;1.90;99.90;;;;;;5036146;28;20861;-77
2022/02/25 06:13:08;;;;;;;0.30;0.27;;;1.90;99.90;;;;;;5036584;28;20451;-77
2022/02/25 06:15:34;;;;;;;0.30;0.20;;;1.90;99.90;;;;;;5036053;28;20446;-76
2022/02/25 06:18:01;;;;;;;0.30;0.20;;;1.80;99.90;;;;;;5035944;28;20506;-77
2022/02/25 06:20:28;;;;;;;0.30;0.20;;;1.90;99.90;;;;;;5035990;28;20826;-77
2022/02/25 06:22:56;;;;;;;0.30;0.20;;;1.80;99.90;;;;;;5035379;28;20802;-77
2022/02/25 06:25:23;;;;;;;0.30;0.20;;;1.80;99.90;;;;;;5034536;28;20966;-77
2022/02/25 06:27:49;;;;;;;0.30;0.30;;;1.80;99.90;;;;;;5035650;28;20466;-77
2022/02/25 06:30:16;;;;;;;0.30;0.30;;;1.80;99.90;;;;;;5035624;28;20474;-77
2022/02/25 06:32:44;;;;;;;0.30;0.30;;;1.80;99.90;;;;;;5035423;28;20458;-77
2022/02/25 06:35:13;;;;;;;0.30;0.20;;;1.80;99.90;;;;;;5035676;28;20493;-77
2022/02/25 06:37:40;;;;;;;0.30;0.20;;;1.70;99.90;;;;;;5035617;28;20512;-77
2022/02/25 06:40:10;;;;;;;0.33;0.30;;;1.70;99.90;;;;;;5035520;28;20494;-77
2022/02/25 06:42:36;;;;;;;0.30;0.30;;;1.70;99.90;;;;;;5035277;28;20442;-77
2022/02/25 06:45:04;;;;;;;0.30;0.30;;;1.70;99.90;;;;;;5035480;28;20429;-77
2022/02/25 06:47:30;;;;;;;0.30;0.30;;;1.70;99.90;;;;;;5035428;28;20473;-77
2022/02/25 06:49:57;;;;;;;0.30;0.30;;;1.70;99.90;;;;;;5035126;28;20550;-77
2022/02/25 06:52:24;;;;;;;0.30;0.30;;;1.70;99.90;;;;;;5035364;28;20455;-77
2022/02/25 06:54:51;;;;;;;0.30;0.20;;;1.70;99.90;;;;;;5035342;28;20449;-77
2022/02/25 06:57:19;;;;;;;0.30;0.20;;;1.80;99.90;;;;;;5035003;28;20462;-77
2022/02/25 06:59:46;;;;;;;0.30;0.30;;;1.80;99.90;;;;;;5035152;28;20843;-77
2022/02/25 07:02:13;;;;;;;0.30;0.30;;;1.80;99.90;;;;;;5035130;28;20463;-77
2022/02/25 07:04:39;;;;;;;0.30;0.20;;;1.90;99.90;;;;;;5034833;28;20453;-77
2022/02/25 07:07:06;;;;;;;0.30;0.30;;;1.80;99.90;;;;;;5035050;28;20454;-77
2022/02/25 07:09:33;;;;;;;0.30;0.30;;;1.90;99.90;;;;;;5035044;28;20443;-78
2022/02/25 07:12:00;;;;;;;0.30;0.30;;;1.90;99.90;;;;;;5034980;28;20451;-78
2022/02/25 07:14:28;;;;;;;0.30;0.30;;;2.00;99.90;;;;;;5035400;28;20462;-78
2022/02/25 07:16:54;;;;;;;0.30;0.30;;;2.00;99.90;;;;;;5034808;28;20451;-78
2022/02/25 07:19:21;;;;;;;0.30;0.30;;;2.10;99.90;;;;;;5034429;28;20482;-78
2022/02/25 07:21:48;;;;;;;0.33;0.30;;;2.20;99.90;;;;;;5034698;28;20441;-78
2022/02/25 07:24:15;;;;;;;0.30;0.30;;;2.30;99.90;;;;;;5034780;28;20454;-78
2022/02/25 07:26:41;;;;;;;0.30;0.30;;;2.50;99.90;;;;;;5034744;28;20442;-78
2022/02/25 07:29:10;;;;;;;0.30;0.20;;;2.60;99.90;;;;;;5034179;28;20484;-79
2022/02/25 07:31:38;;;;;;;0.30;0.20;;;2.80;99.90;;;;;;5034592;28;20443;-78
2022/02/25 07:34:05;;;;;;;0.30;0.30;;;3.00;99.90;;;;;;5034992;28;20827;-78
2022/02/25 07:36:32;;;;;;;0.30;0.27;;;3.10;99.90;;;;;;5033964;28;20427;-78
2022/02/25 07:38:59;;;;;;;0.30;0.20;;;3.10;99.90;;;;;;5034282;28;20489;-78
2022/02/25 07:41:26;;;;;;;0.30;0.30;;;3.10;99.90;;;;;;5034451;28;20454;-78
2022/02/25 07:43:53;;;;;;;1.13;0.73;;;3.10;99.90;;;;;;5034083;28;20457;-79
2022/02/25 07:46:20;;;;;;;0.30;0.30;;;3.10;99.90;;;;;;5034350;28;20453;-78
2022/02/25 07:48:48;;;;;;;0.30;0.30;;;3.10;99.90;;;;;;5033986;28;20455;-78
2022/02/25 07:51:15;;;;;;;0.30;0.20;;;3.20;99.90;;;;;;5034007;28;20434;-79
2022/02/25 07:53:44;;;;;;;0.30;0.20;;;3.10;99.90;;;;;;5034172;28;20453;-78
2022/02/25 07:56:12;;;;;;;0.97;0.90;;;3.00;99.90;;;;;;5033831;28;20942;-79
2022/02/25 07:58:38;;;;;;;0.30;0.20;;;3.10;99.90;;;;;;5033755;28;20459;-79
2022/02/25 08:01:06;;;;;;;0.30;0.20;;;3.20;99.90;;;;;;5033815;28;20435;-79
2022/02/25 08:03:32;;;;;;;0.40;0.40;;;3.20;99.90;;;;;;5034039;28;20447;-79
2022/02/25 08:06:01;;;;;;;0.30;0.20;;;3.20;99.90;;;;;;5034015;28;20442;-80
2022/02/25 08:08:27;;;;;;;0.30;0.20;;;3.20;99.90;;;;;;5033496;28;20470;-81
2022/02/25 08:10:54;;;;;;;0.30;0.30;;;3.30;99.90;;;;;;5033843;28;20442;-80
2022/02/25 08:13:21;;;;;;;0.30;0.20;;;3.50;99.90;;;;;;5033573;28;20945;-81
2022/02/25 08:15:48;;;;;;;0.30;0.30;;;3.40;99.90;;;;;;5033799;28;20502;-80
2022/02/25 08:18:14;;;;;;;0.30;0.20;;;3.50;99.90;;;;;;5033677;28;20482;-81
2022/02/25 08:20:42;;;;;;;0.30;0.30;;;3.50;99.90;;;;;;5033332;28;20487;-80
2022/02/25 08:23:10;;;;;;;0.30;0.20;;;3.50;99.90;;;;;;5033636;28;20453;-80
2022/02/25 08:25:37;;;;;;;0.30;0.30;;;3.60;99.90;;;;;;5033450;28;20882;-81
2022/02/25 08:28:06;;;;;;;0.30;0.30;;;3.60;99.90;;;;;;5033253;28;20475;-81
2022/02/25 08:30:33;;;;;;;0.50;0.30;;;3.70;99.90;;;;;;5033187;28;20577;-80
2022/02/25 08:33:02;;;;;;;0.30;0.20;;;3.80;99.90;;;;;;5033636;28;20457;-81
2022/02/25 08:35:31;;;;;;;0.30;0.30;;;4.00;99.90;;;;;;5033629;28;20455;-81
2022/02/25 08:37:58;;;;;;;0.30;0.20;;;4.40;99.90;;;;;;5033911;28;20470;-80
2022/02/25 08:40:27;;;;;;;0.30;0.20;;;4.60;99.90;;;;;;5033580;28;20494;-80
2022/02/25 08:42:54;;;;;;;0.87;0.87;;;4.80;99.90;;;;;;5033228;28;20980;-81
2022/02/25 08:45:21;;;;;;;0.60;0.57;;;4.90;99.90;;;;;;5033786;28;20442;-81
2022/02/25 08:47:49;;;;;;;0.30;0.20;;;4.90;99.90;;;;;;5032710;28;20474;-81
2022/02/25 08:50:18;;;;;;;0.30;0.30;;;5.00;99.90;;;;;;5033513;28;20808;-81
2022/02/25 08:52:48;;;;;;;0.30;0.30;;;5.10;99.90;;;;;;5033359;28;20427;-81
2022/02/25 08:55:15;;;;;;;0.30;0.20;;;5.40;99.90;;;;;;5033378;28;20407;-81
2022/02/25 08:57:43;;;;;;;0.30;0.30;;;5.80;99.90;;;;;;5032977;28;20471;-81
2022/02/25 09:00:13;;;;;;;0.30;0.20;;;6.00;99.90;;;;;;5033069;28;20497;-80
2022/02/25 09:02:41;;;;;;;0.30;0.20;;;6.40;99.90;;;;;;5032995;28;20906;-81
2022/02/25 09:05:09;;;;;;;0.30;0.20;;;6.60;99.90;;;;;;5033019;28;20442;-81
2022/02/25 09:07:35;;;;;;;0.30;0.30;;;6.80;99.90;;;;;;5033127;28;20470;-81
2022/02/25 09:10:03;;;;;;;0.30;0.20;;;7.20;99.90;;;;;;5033310;28;20439;-81
2022/02/25 09:12:30;;;;;;;0.30;0.30;;;7.60;99.90;;;;;;5033010;28;20411;-81
2022/02/25 09:14:58;;;;;;;0.30;0.20;;;8.00;99.90;;;;;;5033177;28;20434;-81
2022/02/25 09:17:26;;;;;;;0.30;0.20;;;8.70;99.90;;;;;;5032790;28;20864;-81
2022/02/25 09:19:53;;;;;;;0.30;0.30;;;9.40;99.90;;;;;;5032806;28;20911;-80
2022/02/25 09:22:20;;;;;;;0.30;0.30;;;10.20;99.90;;;;;;5033033;28;20821;-81
2022/02/25 09:24:47;;;;;;;0.30;0.20;;;11.00;98.30;;;;;;5033072;28;20412;-80
2022/02/25 09:27:14;;;;;;;0.30;0.20;;;12.00;94.00;;;;;;5033395;28;20442;-81
2022/02/25 09:29:41;;;;;;;0.30;0.30;;;12.30;89.10;;;;;;5032984;28;20475;-81
2022/02/25 09:32:09;;;;;;;0.83;0.83;;;12.10;87.00;;;;;;5032675;28;20441;-80
2022/02/25 09:34:37;;;;;;;0.67;0.27;;;11.90;86.00;;;;;;5033032;28;20818;-81
2022/02/25 09:37:05;;;;;;;0.30;0.30;;;13.30;86.50;;;;;;5033376;28;20458;-80
2022/02/25 09:39:32;;;;;;;0.30;0.30;;;14.70;81.40;;;;;;5032858;28;20477;-80
2022/02/25 09:41:59;;;;;;;0.30;0.23;;;15.60;72.60;;;;;;5033036;28;20434;-81
2022/02/25 09:44:27;;;;;;;0.40;0.30;;;16.10;66.10;;;;;;5032904;28;20436;-81
2022/02/25 09:46:54;;;;;;;0.43;0.30;;;16.20;65.30;;;;;;5032791;28;20439;-81
2022/02/25 09:49:23;;;;;;;0.30;0.30;;;16.60;63.40;;;;;;5032935;28;20437;-81
2022/02/25 09:51:52;;;;;;;0.30;0.30;;;16.30;59.90;;;;;;5032865;28;20435;-81
2022/02/25 09:54:19;;;;;;;0.40;0.30;;;15.00;61.30;;;;;;5032893;28;20450;-81
2022/02/25 09:56:48;;;;;;;2.80;0.40;;;14.50;61.80;;;;;;5032782;28;20438;-81
2022/02/25 09:59:16;;;;;;;0.30;0.20;;;14.20;62.60;;;;;;5035183;28;20466;-81
2022/02/25 10:01:43;;;;;;;0.30;0.30;;;14.40;61.90;;;;;;5036583;28;20431;-81
2022/02/25 10:04:11;;;;;;;0.30;0.20;;;13.90;62.70;;;;;;5036389;28;20427;-81
2022/02/25 10:06:39;;;;;;;0.30;0.30;;;13.90;63.00;;;;;;5036329;28;20434;-81
2022/02/25 10:09:13;;;;;;;0.40;0.30;;;13.20;61.40;;;;;;5036049;28;20489;-81
2022/02/25 10:12:01;;;;;;;0.37;0.30;;;12.80;62.20;;;;;;5036273;28;20415;-81
2022/02/25 10:14:31;;;;;;;1.17;0.33;;;12.00;65.00;;;;;;5036199;28;20427;-81
2022/02/25 10:17:10;;;;;;;0.30;0.20;;;11.30;68.50;;;;;;5035802;28;20485;-80
2022/02/25 10:19:37;;;;;;;0.40;0.30;;;10.90;71.70;;;;;;5035990;28;20427;-80
2022/02/25 10:22:18;;;;;;;0.30;0.30;;;11.40;71.60;;;;;;5035851;28;20418;-80
2022/02/25 10:24:46;;;;;;;0.30;0.30;;;12.10;70.00;;;;;;5036066;28;20763;-81
2022/02/25 10:27:22;;;;;;;0.30;0.30;;;12.80;67.20;;;;;;5035989;28;20431;-80
2022/02/25 10:30:08;;;;;;;0.30;0.20;;;13.30;65.50;;;;;;5035601;28;20474;-80
2022/02/25 10:32:37;;;;;;;0.30;0.20;;;14.70;65.10;;;;;;5035828;28;20474;-80
2022/02/25 10:35:21;;;;;;;0.30;0.27;;;15.90;60.20;;;;;;5035845;28;20439;-80
2022/02/25 10:38:01;;;;;;;0.30;0.20;;;17.10;55.90;;;;;;5035353;28;20993;-80
2022/02/25 10:40:31;;;;;;;0.43;0.43;;;18.00;53.70;;;;;;5035570;28;20466;-80
2022/02/25 10:42:58;;;;;;;0.40;0.30;;;18.50;52.30;;;;;;5035814;28;20439;-80
2022/02/25 10:45:33;;;;;;;0.30;0.30;;;17.40;50.40;;;;;;5035873;28;20431;-79
2022/02/25 10:48:02;;;;;;;0.30;0.27;;;17.40;53.30;;;;;;5035435;28;20470;-79
2022/02/25 10:50:29;;;;;;;0.30;0.30;;;19.00;51.50;;;;;;5035275;28;20879;-80
2022/02/25 10:52:59;;;;;;;0.30;0.30;;;20.40;51.10;;;;;;5034928;28;20925;-80
2022/02/25 10:55:28;;;;;;;1.70;0.60;;;21.20;47.80;;;;;;5035041;28;20500;-81
2022/02/25 10:57:57;;;;;;;0.73;0.40;;;21.70;45.20;;;;;;5035046;28;20465;-81
2022/02/25 11:00:25;;;;;;;0.30;0.20;;;20.50;43.40;;;;;;5035222;28;20553;-81
2022/02/25 11:02:56;;;;;;;0.40;0.30;;;19.80;46.00;;;;;;5035225;28;20434;-81
2022/02/25 11:05:24;;;;;;;0.30;0.30;;;19.70;46.00;;;;;;5035415;28;20438;-81
2022/02/25 11:07:52;;;;;;;0.93;0.40;;;20.40;46.50;;;;;;5035113;28;20489;-81
2022/02/25 11:10:23;;;;;;;0.60;0.40;;;20.80;46.40;;;;;;5034007;28;20438;-81
2022/02/25 11:12:51;;;;;;;0.67;0.30;;;19.80;45.10;;;;;;5035050;28;20187;-80
2022/02/25 11:15:20;;;;;;;0.40;0.30;;;18.80;45.40;;;;;;5034913;28;20438;-81
2022/02/25 11:17:48;;;;;;;0.30;0.30;;;17.60;46.20;;;;;;5034946;28;20470;-81
2022/02/25 11:20:19;;;;;;;0.33;0.33;;;16.20;49.50;;;;;;5034716;28;20485;-81
2022/02/25 11:22:49;;;;;;;0.30;0.30;;;15.00;50.40;;;;;;5034939;28;20898;-81
2022/02/25 11:25:17;;;;;;;0.90;0.30;;;13.90;52.80;;;;;;5037670;28;20446;-80
2022/02/25 11:27:46;;;;;;;0.50;0.30;;;13.20;52.80;;;;;;5034777;28;20451;-81
2022/02/25 11:30:18;;;;;;;0.40;0.30;;;12.30;53.70;;;;;;5034320;28;20474;-81
2022/02/25 11:32:54;;;;;;;0.60;0.30;;;11.90;55.80;;;;;;5034674;28;20482;-81
2022/02/25 11:35:23;;;;;;;0.30;0.30;;;11.70;57.40;;;;;;5034582;28;20426;-81
2022/02/25 11:37:51;;;;;;;0.40;0.30;;;11.60;56.70;;;;;;5034848;28;20841;-80
2022/02/25 11:40:51;;;;;;;0.30;0.20;;;11.30;56.80;;;;;;5034457;28;20490;-81
2022/02/25 11:43:41;;;;;;;0.30;0.20;;;11.40;58.00;;;;;;5034361;28;20446;-80
2022/02/25 11:46:10;;;;;;;0.30;0.20;;;11.10;56.90;;;;;;5034344;28;20482;-80
2022/02/25 11:48:44;;;;;;;0.30;0.30;;;10.70;56.20;;;;;;5034401;28;20459;-81
2022/02/25 11:51:34;;;;;;;0.30;0.20;;;10.40;57.60;;;;;;5034334;28;20416;-80
2022/02/25 11:54:23;;;;;;;0.40;0.30;;;10.30;57.80;;;;;;5034235;28;20457;-81
2022/02/25 11:57:36;;;;;;;0.30;0.20;;;10.10;57.70;;;;;;5034138;28;20442;-80
2022/02/25 12:00:21;;;;;;;0.30;0.27;;;9.90;59.90;;;;;;5011999;28;20468;-80
2022/02/25 12:03:17;;;;;;;0.30;0.30;;;9.90;61.70;;;;;;5031650;28;20553;-80
2022/02/25 12:05:46;;;;;;;0.30;0.20;;;9.90;62.60;;;;;;4992412;28;20410;-80
2022/02/25 12:08:23;;;;;;;0.30;0.30;;;9.90;61.50;;;;;;5024262;28;20849;-80
2022/02/25 12:10:50;;;;;;;0.33;0.30;;;9.90;61.20;;;;;;5034589;28;20442;-80
2022/02/25 12:13:23;;;;;;;0.30;0.20;;;9.80;61.50;;;;;;5033794;28;20431;-80
2022/02/25 12:15:52;;;;;;;0.30;0.30;;;9.60;62.40;;;;;;5033838;28;20408;-80
2022/02/25 12:18:19;;;;;;;0.30;0.30;;;9.60;63.50;;;;;;5033792;28;20475;-80
2022/02/25 12:20:50;;;;;;;0.30;0.20;;;9.70;63.80;;;;;;5033707;28;20463;-80
2022/02/25 12:23:20;;;;;;;0.30;0.30;;;9.80;64.00;;;;;;5032986;28;20438;-80
2022/02/25 12:25:52;;;;;;;0.30;0.20;;;9.90;64.20;;;;;;5033568;28;20478;-80
2022/02/25 12:28:45;;;;;;;0.40;0.40;;;9.90;62.40;;;;;;5034114;28;20487;-79
2022/02/25 12:31:15;;;;;;;0.40;0.30;;;10.10;61.20;;;;;;5033118;28;20470;-80
2022/02/25 12:33:54;;;;;;;0.30;0.20;;;9.90;62.50;;;;;;5033238;28;20431;-81
2022/02/25 12:36:42;;;;;;;0.30;0.20;;;9.70;63.10;;;;;;5033560;28;20438;-80
2022/02/25 12:39:15;;;;;;;0.30;0.27;;;9.30;64.20;;;;;;5033439;28;20463;-81
2022/02/25 12:41:43;;;;;;;0.40;0.40;;;9.20;65.30;;;;;;5033198;28;20984;-80
2022/02/25 12:44:12;;;;;;;0.30;0.30;;;9.00;66.30;;;;;;5033497;28;20439;-81
2022/02/25 12:46:43;;;;;;;0.50;0.50;;;8.80;67.50;;;;;;5033966;28;20451;-81
2022/02/25 12:49:12;;;;;;;0.30;0.30;;;8.60;67.00;;;;;;5033329;28;20481;-81
2022/02/25 12:51:39;;;;;;;0.30;0.20;;;8.40;67.70;;;;;;5033331;28;20454;-81
2022/02/25 12:54:08;;;;;;;0.30;0.30;;;8.30;68.90;;;;;;5033395;28;20443;-81
2022/02/25 12:56:37;;;;;;;0.30;0.30;;;8.40;68.60;;;;;;5034052;28;20838;-81
2022/02/25 12:59:06;;;;;;;0.30;0.20;;;8.50;70.00;;;;;;5032942;28;21004;-82
2022/02/25 13:01:35;;;;;;;0.40;0.40;;;8.50;69.00;;;;;;5033244;28;20498;-81
2022/02/25 13:04:06;;;;;;;0.30;0.20;;;8.50;69.40;;;;;;5033062;28;20434;-81
2022/02/25 13:06:35;;;;;;;0.30;0.20;;;8.40;67.60;;;;;;5033496;28;20498;-81
2022/02/25 13:09:04;;;;;;;0.30;0.20;;;8.30;68.20;;;;;;5033146;28;20520;-81